Autoridad de Aeronautica Civil de Panamá***
**


taf




 

AERÓDROMOS

 

PRONOSTICO DE AERÓDROMO
TAF

AEROPUERTO INTL. DE TOCUMEN:


TAF MPTO 130500Z 1306/1412 25006KT 9999 SCT018 TEMPO 1306/1310 VRB02KT SCT016 PROB30 TEMPO 1316/1320 18010KT 7000 TSRA FEW016CB SCT080=
AEROPUERTO MARCOS A. GELABERT:


TAF AMD MPMG 130300Z 1300/1312 CNL=
AEROPUERTO ENRIQUE MALEK:


TAF AMD MPDA 130100Z 1300/1312 CNL=
AEROPUERTO PANAMA PACIFICO:


TAF AMD MPPA 130300Z 1300/1406 CNL=
AEROPUERTO SCARLETT MARTÍNEZ:


TAF AMD MPSM 122100Z 1218/1324 CNL=


Contador: 5753